White Oak, GA

1:02 AM EST on December 14, 2019 (GMT -0500)
White Oak | | Change Station
Active Advisory: Dense Fog Advisory

Elev 16 ft 31.03 °N, 81.73 °W | Updated 17 seconds ago

Overcast
Overcast
58.6 °F
Feels Like 58.6 °F
N
0
Wind Variable Wind from SW
Gusts 0.0 mph

Today
High -- | Low -- °F
--% Chance of Precip.
Yesterday
High -- | Low -- °F
Precip. -- in
Pressure 29.72 in
Visibility 0.8 miles
Clouds
Dew Point 58 °F
Humidity 99%
Rainfall 0.00 in
Snow Depth Not available.
7:16 AM 5:26 PM
Waning Gibbous, 95% visible
METAR KSSI 140553Z AUTO 15004KT 3/4SM BR VV002 15/14 A2971 RMK AO2 SLP062 T01500139 10150 20133 56026
Pressure 29.72 in
Visibility 0.8 miles
Clouds
Dew Point 58 °F
Humidity 99%
Rainfall 0.00 in
Snow Depth Not available.
7:16 AM 5:26 PM
Waning Gibbous, 95% visible
METAR KSSI 140553Z AUTO 15004KT 3/4SM BR VV002 15/14 A2971 RMK AO2 SLP062 T01500139 10150 20133 56026

Get Your Daily Forecast Email!

Thanks for signing up!

Be on the lookout for a verification email in your inbox.

You'll start receiving severe weather alerts in your inbox..

×

10-Day Weather Forecast

Almanac

Astronomy

Dec. 14, 2019 Rise Set
Actual Time
Civil Twilight
Nautical Twilight
Astronomical Twilight
Moon
Length of Visible Light
Length of Day
Tomorrow will be .
, % of the Moon is Illuminated

Today's Extremes

State Highs State Lows

Community

WunderPhotos

Category 6

Welcome to Category 6. This is the collective home for Weather Underground's featured writeups by Dr. Jeff Masters (right), Bob Henson (left), Chris Burt, and other regular contributors.

Nearby

Air Quality

  Air Quality AQ Index Pollutant
Not available.

Snow Depth

Station Depth Elevation

Earthquake Activity

City Distance Mag. Time & Date
Minimum magnitude displayed is 2.5.

Coastal Water Temperatures

Place Temperature

Stations

Nearby Weather Stations

Station Location Temp. Windchill Dew Point Humidity Wind Precip. Elev Updated Type
                   

Watches & Warnings

Dense Fog Advisory
Issued: 8:15 PM EST Dec. 13, 2019 – National Weather Service

... Dense fog advisory in effect until 2 am EST Saturday...

* what... visibility around a quarter of a mile or less in dense
fog.

* Where... portions of southeast Georgia and northeast and
northern Florida.

* When... until 2 am EST Saturday.

* Impacts... hazardous driving conditions due to low visibility.

Precautionary/preparedness actions...

A dense fog advisory means visibilities will frequently be
reduced to one quarter mile or less. If driving, slow down, use
your low beam headlights, and leave plenty of distance ahead of
you.